createdAt,value
2022-07-25T00:00:42.360Z,83.42
2022-07-25T00:03:12.136Z,79.56
2022-07-25T00:05:46.665Z,80.97
2022-07-25T00:08:16.339Z,79.57
2022-07-25T00:10:46.041Z,79.57
2022-07-25T00:13:15.743Z,83.62
2022-07-25T00:15:45.456Z,83.03
2022-07-25T00:18:15.147Z,83.25
2022-07-25T00:20:44.904Z,83.77
2022-07-25T00:23:14.590Z,84.90
2022-07-25T00:25:44.331Z,81.17
2022-07-25T00:28:14.023Z,80.84
2022-07-25T00:30:44.157Z,83.87
2022-07-25T00:33:13.991Z,82.28
2022-07-25T00:35:43.677Z,82.88
2022-07-25T00:38:13.378Z,83.61
2022-07-25T00:40:43.090Z,84.82
2022-07-25T00:43:12.869Z,84.21
2022-07-25T00:45:42.562Z,82.50
2022-07-25T00:48:12.218Z,80.77
2022-07-25T00:50:41.976Z,84.11
2022-07-25T00:53:11.670Z,81.96
2022-07-25T00:55:41.736Z,84.71
2022-07-25T00:58:11.381Z,84.17
2022-07-25T01:00:41.539Z,82.84
2022-07-25T01:03:11.439Z,81.73
2022-07-25T01:05:42.202Z,83.12
2022-07-25T01:08:12.779Z,82.53
2022-07-25T01:10:42.606Z,82.14
2022-07-25T01:13:12.333Z,84.77
2022-07-25T01:15:42.055Z,81.82
2022-07-25T01:18:11.964Z,81.21
2022-07-25T01:20:41.687Z,81.28
2022-07-25T01:23:11.359Z,80.91
2022-07-25T01:25:41.207Z,84.82
2022-07-25T01:28:10.903Z,83.01
2022-07-25T01:30:40.670Z,85.57
2022-07-25T01:33:10.512Z,86.95
2022-07-25T01:35:43.406Z,83.59
2022-07-25T01:38:13.695Z,82.40
2022-07-25T01:40:44.192Z,81.60
2022-07-25T01:43:14.882Z,82.02
2022-07-25T01:45:44.613Z,81.64
2022-07-25T01:48:14.365Z,84.67
2022-07-25T01:50:44.052Z,84.35
2022-07-25T01:53:14.427Z,84.46
2022-07-25T01:55:44.180Z,82.27
2022-07-25T01:58:13.932Z,84.57
2022-07-25T02:00:44.192Z,85.30
2022-07-25T02:03:26.343Z,83.91
2022-07-25T02:05:56.152Z,83.88
2022-07-25T02:08:26.102Z,84.13
2022-07-25T02:10:56.009Z,84.64
2022-07-25T02:13:26.139Z,86.47
2022-07-25T02:15:55.952Z,86.88
2022-07-25T02:18:25.658Z,84.70
2022-07-25T02:20:55.467Z,86.04
2022-07-25T02:23:25.139Z,84.65
2022-07-25T02:25:54.871Z,84.07
2022-07-25T02:28:24.548Z,85.39
2022-07-25T02:30:54.292Z,83.03
2022-07-25T02:33:24.044Z,82.57
2022-07-25T02:35:53.919Z,86.56
2022-07-25T02:38:23.607Z,84.32
2022-07-25T02:40:55.032Z,89.06
2022-07-25T02:43:25.857Z,88.77
2022-07-25T02:45:55.630Z,84.75
2022-07-25T02:48:25.471Z,84.46
2022-07-25T02:50:55.152Z,83.34
2022-07-25T02:53:54.475Z,82.80
2022-07-25T02:56:14.582Z,84.32
2022-07-25T02:58:44.634Z,84.13
2022-07-25T03:01:14.406Z,86.54
2022-07-25T03:03:44.450Z,85.93
2022-07-25T03:06:14.204Z,86.98
2022-07-25T03:08:44.010Z,87.97
2022-07-25T03:11:14.820Z,86.67
2022-07-25T03:13:44.518Z,85.03
2022-07-25T03:16:14.286Z,83.95
2022-07-25T03:18:44.153Z,84.80
2022-07-25T03:21:14.062Z,83.33
2022-07-25T03:23:43.695Z,82.73
2022-07-25T03:26:13.396Z,83.83
2022-07-25T03:28:43.109Z,86.66
2022-07-25T03:31:12.711Z,84.09
2022-07-25T03:33:42.453Z,83.42
2022-07-25T03:36:12.404Z,86.81
2022-07-25T03:38:42.191Z,86.64
2022-07-25T03:41:11.830Z,86.30
2022-07-25T03:43:41.627Z,86.37
2022-07-25T03:46:11.418Z,86.27
2022-07-25T03:48:41.369Z,86.38
2022-07-25T03:51:11.382Z,84.22
2022-07-25T03:53:53.247Z,86.61
2022-07-25T03:56:23.227Z,87.57
2022-07-25T03:58:52.902Z,89.74
2022-07-25T04:01:22.942Z,88.60
2022-07-25T04:03:54.688Z,90.17
2022-07-25T04:06:24.348Z,88.80
2022-07-25T04:08:55.044Z,85.76
2022-07-25T04:11:25.273Z,85.18
2022-07-25T04:13:55.077Z,85.19
2022-07-25T04:16:25.137Z,84.61
2022-07-25T04:18:58.518Z,86.34
2022-07-25T04:21:31.078Z,87.86
2022-07-25T04:24:00.846Z,85.29
2022-07-25T04:26:30.691Z,84.74
2022-07-25T04:29:03.559Z,84.79
2022-07-25T04:31:33.736Z,85.52
2022-07-25T04:34:03.696Z,89.06
2022-07-25T04:36:33.697Z,91.01
2022-07-25T04:39:03.436Z,89.18
2022-07-25T04:41:33.697Z,87.03
2022-07-25T04:44:03.995Z,85.79
2022-07-25T04:46:36.613Z,86.26
2022-07-25T04:49:06.559Z,88.83
2022-07-25T04:51:36.266Z,86.48
2022-07-25T04:54:06.508Z,85.98
2022-07-25T04:56:36.591Z,86.65
2022-07-25T04:59:07.178Z,85.99
2022-07-25T05:01:38.616Z,85.78
2022-07-25T05:04:08.797Z,85.25
2022-07-25T05:06:38.683Z,85.59
2022-07-25T05:09:08.299Z,85.34
2022-07-25T05:11:38.087Z,86.17
2022-07-25T05:14:08.617Z,85.82
2022-07-25T05:16:38.493Z,85.43
2022-07-25T05:19:09.810Z,85.89
2022-07-25T05:21:39.588Z,90.41
2022-07-25T05:24:10.090Z,87.47
2022-07-25T05:26:39.930Z,86.58
2022-07-25T05:29:10.415Z,87.40
2022-07-25T05:31:40.276Z,85.89
2022-07-25T05:34:10.312Z,85.69
2022-07-25T05:36:44.189Z,87.96
2022-07-25T05:39:16.918Z,86.88
2022-07-25T05:41:46.948Z,86.83
2022-07-25T05:44:16.757Z,85.69
2022-07-25T05:46:46.588Z,87.13
2022-07-25T05:49:16.429Z,86.58
2022-07-25T05:51:46.208Z,85.64
2022-07-25T05:54:15.927Z,85.41
2022-07-25T05:56:45.796Z,84.82
2022-07-25T05:59:15.643Z,86.16
2022-07-25T06:01:45.476Z,86.24
2022-07-25T06:04:15.516Z,84.40
2022-07-25T06:06:51.156Z,84.83
2022-07-25T06:09:22.660Z,85.05
2022-07-25T06:12:00.116Z,84.77
2022-07-25T06:14:31.514Z,84.56
2022-07-25T06:17:01.299Z,83.79
2022-07-25T06:19:31.271Z,84.64
2022-07-25T06:22:01.150Z,84.84
2022-07-25T06:24:31.231Z,84.06
2022-07-25T06:27:01.106Z,84.84
2022-07-25T06:29:30.849Z,84.08
2022-07-25T06:32:00.622Z,83.90
2022-07-25T06:34:30.323Z,83.76
2022-07-25T06:37:00.991Z,83.10
2022-07-25T06:39:30.768Z,83.07
2022-07-25T06:42:00.615Z,83.22
2022-07-25T06:44:38.208Z,83.54
2022-07-25T06:47:12.798Z,82.79
2022-07-25T06:49:43.975Z,82.33
2022-07-25T06:52:13.640Z,81.86
2022-07-25T06:54:43.455Z,81.39
2022-07-25T06:57:13.143Z,81.08
2022-07-25T06:59:42.907Z,81.51
2022-07-25T07:02:12.815Z,81.52
2022-07-25T07:04:42.670Z,81.91
2022-07-25T07:07:12.533Z,81.00
2022-07-25T07:09:43.009Z,81.23
2022-07-25T07:12:13.422Z,80.91
2022-07-25T07:14:44.514Z,80.36
2022-07-25T07:17:14.354Z,80.26
2022-07-25T07:19:45.886Z,79.33
2022-07-25T07:22:15.567Z,78.73
2022-07-25T07:24:48.119Z,78.88
2022-07-25T07:27:19.058Z,78.81
2022-07-25T07:29:49.316Z,78.72
2022-07-25T07:32:19.793Z,77.12
2022-07-25T07:34:49.598Z,78.00
2022-07-25T07:37:19.283Z,77.00
2022-07-25T07:39:49.271Z,76.82
2022-07-25T07:42:18.923Z,76.71
2022-07-25T07:44:49.305Z,76.75
2022-07-25T07:47:21.777Z,76.11
2022-07-25T07:49:51.499Z,76.33
2022-07-25T07:52:21.118Z,76.01
2022-07-25T07:55:03.173Z,75.99
2022-07-25T07:57:34.501Z,75.20
2022-07-25T08:00:04.272Z,75.58
2022-07-25T08:02:54.186Z,75.36
2022-07-25T08:05:26.594Z,74.61
2022-07-25T08:07:57.435Z,74.38
2022-07-25T08:10:29.763Z,74.21
2022-07-25T08:13:00.175Z,75.25
2022-07-25T08:15:30.247Z,74.67
2022-07-25T08:18:00.544Z,74.62
2022-07-25T08:20:38.706Z,74.39
2022-07-25T08:23:11.133Z,74.89
2022-07-25T08:25:42.013Z,74.22
2022-07-25T08:28:12.337Z,73.74
2022-07-25T08:30:42.979Z,73.20
2022-07-25T08:33:16.389Z,72.07
2022-07-25T08:35:54.896Z,69.20
2022-07-25T08:38:26.125Z,70.60
2022-07-25T08:40:58.290Z,70.53
2022-07-25T08:43:29.424Z,71.16
2022-07-25T08:45:59.786Z,70.35
2022-07-25T08:48:30.415Z,69.85
2022-07-25T08:51:01.009Z,69.69
2022-07-25T08:53:33.705Z,68.30
2022-07-25T08:56:10.728Z,68.99
2022-07-25T08:58:43.953Z,66.29
2022-07-25T09:01:15.515Z,67.87
2022-07-25T09:03:46.514Z,68.43
2022-07-25T09:06:24.503Z,69.16
2022-07-25T09:08:56.461Z,68.48
2022-07-25T09:11:44.350Z,67.61
2022-07-25T09:14:15.705Z,68.35
2022-07-25T09:16:48.159Z,67.35
2022-07-25T09:19:28.595Z,66.33
2022-07-25T09:22:10.060Z,67.03
2022-07-25T09:24:48.099Z,66.90
2022-07-25T09:27:18.330Z,66.17
2022-07-25T09:29:48.253Z,66.72
2022-07-25T09:32:23.422Z,64.73
2022-07-25T09:34:53.774Z,65.05
2022-07-25T09:37:29.915Z,63.87
2022-07-25T09:39:59.612Z,64.45
2022-07-25T09:42:32.276Z,64.69
2022-07-25T09:45:11.530Z,62.87
2022-07-25T09:47:53.410Z,63.04
2022-07-25T09:50:25.242Z,60.66
2022-07-25T09:52:57.070Z,61.68
2022-07-25T09:55:27.619Z,59.93
2022-07-25T09:57:57.572Z,61.71
2022-07-25T10:00:29.718Z,60.01
2022-07-25T10:03:45.719Z,59.82
2022-07-25T10:06:23.663Z,61.34
2022-07-25T10:08:54.354Z,61.99
2022-07-25T10:11:30.060Z,61.51
2022-07-25T10:14:00.034Z,60.30
2022-07-25T10:16:30.670Z,60.10
2022-07-25T10:19:01.771Z,57.52
2022-07-25T10:21:31.781Z,60.14
2022-07-25T10:24:12.954Z,58.69
2022-07-25T10:26:55.049Z,55.14
2022-07-25T10:29:24.808Z,57.98
2022-07-25T10:31:54.782Z,58.51
2022-07-25T10:34:33.567Z,58.14
2022-07-25T10:37:18.481Z,55.71
2022-07-25T10:39:48.885Z,57.62
2022-07-25T10:42:20.959Z,55.91
2022-07-25T10:44:52.642Z,54.72
2022-07-25T10:47:26.593Z,53.79
2022-07-25T10:50:34.769Z,55.65
2022-07-25T10:53:07.877Z,53.31
2022-07-25T10:55:39.522Z,55.48
2022-07-25T10:58:18.173Z,54.77
2022-07-25T11:00:48.229Z,51.20
2022-07-25T11:03:18.675Z,53.16
2022-07-25T11:05:51.803Z,52.26
2022-07-25T11:08:22.631Z,53.43
2022-07-25T11:10:55.188Z,53.63
2022-07-25T11:13:24.904Z,50.66
2022-07-25T11:15:54.684Z,51.74
2022-07-25T11:18:35.020Z,52.14
2022-07-25T11:21:06.834Z,51.45
2022-07-25T11:23:38.852Z,49.77
2022-07-25T11:26:13.876Z,50.79
2022-07-25T11:28:53.626Z,50.53
2022-07-25T11:31:26.262Z,49.90
2022-07-25T11:33:56.124Z,50.14
2022-07-25T11:36:25.902Z,50.03
2022-07-25T11:38:55.654Z,47.89
2022-07-25T11:41:33.068Z,49.23
2022-07-25T11:44:02.837Z,47.89
2022-07-25T11:46:32.602Z,49.61
2022-07-25T11:49:09.157Z,49.41
2022-07-25T11:51:41.994Z,49.51
2022-07-25T11:54:13.779Z,47.87
2022-07-25T11:56:45.762Z,49.41
2022-07-25T11:59:16.938Z,49.43
2022-07-25T12:01:47.694Z,50.16
2022-07-25T12:04:20.607Z,48.78
2022-07-25T12:06:52.007Z,50.06
2022-07-25T12:09:24.803Z,51.52
2022-07-25T12:12:06.214Z,50.46
2022-07-25T12:14:45.622Z,50.58
2022-07-25T12:17:15.445Z,49.44
2022-07-25T12:19:48.812Z,48.10
2022-07-25T12:22:18.545Z,49.18
2022-07-25T12:24:48.398Z,48.71
2022-07-25T12:27:18.027Z,48.98
2022-07-25T12:29:47.731Z,49.81
2022-07-25T12:32:17.616Z,48.72
2022-07-25T12:34:47.285Z,47.84
2022-07-25T12:37:17.012Z,47.99
2022-07-25T12:39:46.709Z,47.12
2022-07-25T12:42:16.476Z,46.03
2022-07-25T12:44:46.732Z,47.44
2022-07-25T12:47:16.412Z,45.96
2022-07-25T12:49:46.279Z,41.55
2022-07-25T12:52:15.973Z,42.62
2022-07-25T12:54:46.371Z,42.64
2022-07-25T12:57:20.921Z,42.33
2022-07-25T12:59:50.623Z,41.97
2022-07-25T13:02:20.386Z,40.16
2022-07-25T13:04:50.177Z,43.78
2022-07-25T13:07:19.937Z,42.70
2022-07-25T13:09:49.895Z,40.78
2022-07-25T13:12:19.743Z,41.67
2022-07-25T13:14:49.764Z,43.06
2022-07-25T13:17:26.501Z,42.82
2022-07-25T13:19:57.786Z,42.31
2022-07-25T13:22:28.478Z,42.01
2022-07-25T13:24:58.387Z,40.76
2022-07-25T13:27:28.123Z,40.96
2022-07-25T13:29:58.161Z,39.95
2022-07-25T13:32:29.611Z,38.87
2022-07-25T13:34:59.984Z,37.56
2022-07-25T13:37:30.135Z,38.42
2022-07-25T13:39:59.813Z,39.10
2022-07-25T13:42:29.800Z,38.36
2022-07-25T13:44:59.742Z,37.34
2022-07-25T13:47:30.658Z,38.01
2022-07-25T13:50:00.714Z,34.49
2022-07-25T13:52:30.427Z,32.66
2022-07-25T13:55:00.253Z,35.21
2022-07-25T13:57:30.049Z,35.46
2022-07-25T13:59:59.736Z,35.39
2022-07-25T14:02:29.703Z,33.90
2022-07-25T14:05:03.753Z,34.01
2022-07-25T14:07:34.060Z,30.01
2022-07-25T14:10:04.185Z,33.36
2022-07-25T14:12:34.326Z,31.32
2022-07-25T14:15:04.410Z,33.22
2022-07-25T14:17:34.142Z,32.67
2022-07-25T14:20:03.850Z,32.69
2022-07-25T14:22:33.564Z,32.90
2022-07-25T14:25:03.234Z,31.61
2022-07-25T14:27:32.912Z,32.20
2022-07-25T14:30:02.651Z,32.97
2022-07-25T14:32:32.352Z,32.03
2022-07-25T14:35:02.558Z,30.60
2022-07-25T14:37:32.518Z,29.06
2022-07-25T14:40:03.275Z,30.30
2022-07-25T14:42:33.140Z,31.33
2022-07-25T14:45:02.936Z,29.72
2022-07-25T14:47:34.115Z,30.18
2022-07-25T14:50:04.072Z,29.99
2022-07-25T14:52:34.298Z,30.98
2022-07-25T14:55:05.125Z,30.46
2022-07-25T14:57:35.129Z,30.41
2022-07-25T15:00:08.156Z,29.39
2022-07-25T15:02:40.694Z,31.51
2022-07-25T15:05:10.922Z,30.88
2022-07-25T15:07:40.995Z,29.64
2022-07-25T15:10:11.203Z,29.17
2022-07-25T15:12:41.212Z,29.20
2022-07-25T15:15:11.542Z,28.03
2022-07-25T15:17:41.823Z,28.25
2022-07-25T15:20:12.050Z,27.50
2022-07-25T15:22:41.726Z,27.94
2022-07-25T15:28:02.140Z,27.78
2022-07-25T15:30:31.926Z,27.84
2022-07-25T15:33:02.199Z,25.42
2022-07-25T15:35:31.925Z,26.80
2022-07-25T15:38:01.674Z,27.19
2022-07-25T15:40:31.465Z,27.07
2022-07-25T15:43:01.492Z,27.16
2022-07-25T15:45:33.152Z,26.15
2022-07-25T15:48:03.830Z,27.31
2022-07-25T15:50:33.601Z,27.12
2022-07-25T15:53:03.380Z,26.01
2022-07-25T15:55:33.963Z,26.74
2022-07-25T15:58:04.204Z,27.33
2022-07-25T16:00:34.027Z,27.01
2022-07-25T16:03:04.362Z,26.31
2022-07-25T16:05:34.146Z,26.99
2022-07-25T16:08:04.714Z,27.29
2022-07-25T16:10:36.413Z,28.85
2022-07-25T16:13:06.387Z,27.95
2022-07-25T16:15:36.197Z,27.79
2022-07-25T16:18:06.223Z,27.03
2022-07-25T16:20:36.396Z,27.67
2022-07-25T16:23:06.539Z,26.80
2022-07-25T16:25:36.387Z,26.59
2022-07-25T16:28:06.416Z,27.16
2022-07-25T16:30:36.550Z,28.28
2022-07-25T16:33:06.304Z,27.42
2022-07-25T16:35:36.006Z,28.01
2022-07-25T16:38:05.716Z,27.37
2022-07-25T16:40:35.802Z,28.76
2022-07-25T16:43:05.558Z,29.40
2022-07-25T16:45:35.279Z,29.65
2022-07-25T16:48:05.130Z,29.16
2022-07-25T16:50:34.723Z,30.33
2022-07-25T16:53:04.358Z,31.02
2022-07-25T16:55:34.345Z,31.85
2022-07-25T16:58:04.047Z,31.97
2022-07-25T17:00:34.254Z,32.97
2022-07-25T17:03:04.148Z,33.15
2022-07-25T17:05:33.827Z,34.99
2022-07-25T17:08:03.563Z,35.30
2022-07-25T17:10:33.223Z,38.01
2022-07-25T17:13:03.189Z,38.26
2022-07-25T17:15:32.925Z,40.09
2022-07-25T17:18:02.726Z,38.59
2022-07-25T17:20:32.409Z,39.38
2022-07-25T17:23:02.096Z,39.14
2022-07-25T17:25:31.831Z,38.61
2022-07-25T17:28:01.575Z,38.58
2022-07-25T17:30:31.673Z,38.29
2022-07-25T17:33:01.993Z,38.32
2022-07-25T17:35:31.682Z,39.43
2022-07-25T17:38:01.940Z,40.77
2022-07-25T17:40:31.843Z,39.87
2022-07-25T17:43:01.575Z,43.85
2022-07-25T17:45:31.318Z,43.20
2022-07-25T17:48:01.294Z,43.63
2022-07-25T17:50:31.021Z,44.32
2022-07-25T17:53:01.021Z,44.60
2022-07-25T17:55:35.423Z,45.33
2022-07-25T17:58:08.413Z,45.62
2022-07-25T18:00:38.544Z,47.25
2022-07-25T18:03:09.352Z,47.03
2022-07-25T18:05:39.918Z,47.22
2022-07-25T18:08:09.783Z,47.42
2022-07-25T18:10:39.510Z,47.04
2022-07-25T18:13:09.275Z,46.92
2022-07-25T18:15:39.423Z,47.88
2022-07-25T18:18:10.559Z,48.44
2022-07-25T18:20:43.999Z,48.19
2022-07-25T18:23:13.905Z,48.22
2022-07-25T18:25:43.958Z,49.34
2022-07-25T18:28:13.842Z,49.29
2022-07-25T18:30:43.528Z,49.02
2022-07-25T18:33:13.848Z,50.73
2022-07-25T18:35:43.539Z,52.29
2022-07-25T18:38:13.286Z,52.34
2022-07-25T18:40:43.099Z,51.20
2022-07-25T18:43:12.746Z,52.57
2022-07-25T18:45:42.804Z,51.99
2022-07-25T18:48:12.441Z,53.36
2022-07-25T18:50:42.214Z,55.09
2022-07-25T18:53:12.417Z,53.25
2022-07-25T18:55:42.203Z,51.96
2022-07-25T18:58:15.946Z,53.63
